createdAt,value
2023-01-17T00:00:04.783Z,2.03
2023-01-17T00:02:32.897Z,2.01
2023-01-17T00:05:18.260Z,2.01
2023-01-17T00:08:03.448Z,2.01
2023-01-17T00:10:30.065Z,2.00
2023-01-17T00:13:02.961Z,1.98
2023-01-17T00:15:31.190Z,1.98
2023-01-17T00:17:57.856Z,1.97
2023-01-17T00:20:49.550Z,1.96
2023-01-17T00:23:38.674Z,1.96
2023-01-17T00:26:16.120Z,1.96
2023-01-17T00:28:42.815Z,1.95
2023-01-17T00:31:12.736Z,1.95
2023-01-17T00:33:39.705Z,1.96
2023-01-17T00:36:06.975Z,1.95
2023-01-17T00:38:34.993Z,1.95
2023-01-17T00:41:09.527Z,1.95
2023-01-17T00:43:54.865Z,1.96
2023-01-17T00:46:40.551Z,1.97
2023-01-17T00:49:26.205Z,1.97
2023-01-17T00:52:11.648Z,1.98
2023-01-17T00:54:57.014Z,1.99
2023-01-17T00:57:42.241Z,2.00
2023-01-17T01:00:27.956Z,2.00
2023-01-17T01:03:14.832Z,2.01
2023-01-17T01:06:00.128Z,2.03
2023-01-17T01:08:46.944Z,2.06
2023-01-17T01:11:34.229Z,2.08
2023-01-17T01:14:20.336Z,2.09
2023-01-17T01:17:05.547Z,2.10
2023-01-17T01:19:50.961Z,2.11
2023-01-17T01:22:36.233Z,2.13
2023-01-17T01:25:21.709Z,2.14
2023-01-17T01:28:06.901Z,2.16
2023-01-17T01:30:52.250Z,2.17
2023-01-17T01:33:19.109Z,2.18
2023-01-17T01:35:47.607Z,2.19
2023-01-17T01:38:15.085Z,2.20
2023-01-17T01:40:43.600Z,2.21
2023-01-17T01:43:12.394Z,2.22
2023-01-17T01:45:39.868Z,2.25
2023-01-17T01:48:22.116Z,2.26
2023-01-17T01:50:48.970Z,2.28
2023-01-17T01:53:15.618Z,2.29
2023-01-17T01:55:42.594Z,2.32
2023-01-17T01:58:13.063Z,2.34
2023-01-17T02:00:40.253Z,2.35
2023-01-17T02:03:12.758Z,2.37
2023-01-17T02:05:41.811Z,2.38
2023-01-17T02:08:11.366Z,2.40
2023-01-17T02:10:39.337Z,2.42
2023-01-17T02:13:06.344Z,2.44
2023-01-17T02:15:38.537Z,2.46
2023-01-17T02:18:30.435Z,2.47
2023-01-17T02:21:09.405Z,2.48
2023-01-17T02:24:13.639Z,2.48
2023-01-17T02:26:51.998Z,2.49
2023-01-17T02:29:31.717Z,2.49
2023-01-17T02:32:15.718Z,2.50
2023-01-17T02:35:14.601Z,2.51
2023-01-17T02:38:14.859Z,2.51
2023-01-17T02:40:49.559Z,2.52
2023-01-17T02:43:19.151Z,2.52
2023-01-17T02:45:50.522Z,2.52
2023-01-17T02:48:20.867Z,2.53
2023-01-17T02:51:18.347Z,2.53
2023-01-17T02:53:59.859Z,2.53
2023-01-17T02:57:04.528Z,2.52
2023-01-17T02:59:42.487Z,2.52
2023-01-17T03:02:50.550Z,2.52
2023-01-17T03:05:39.531Z,2.51
2023-01-17T03:08:08.519Z,2.51
2023-01-17T03:10:37.469Z,2.49
2023-01-17T03:13:06.400Z,2.48
2023-01-17T03:15:35.862Z,2.46
2023-01-17T03:18:06.512Z,2.46
2023-01-17T03:20:36.552Z,2.43
2023-01-17T03:23:05.804Z,2.42
2023-01-17T03:25:34.767Z,2.40
2023-01-17T03:28:04.751Z,2.39
2023-01-17T03:30:34.329Z,2.37
2023-01-17T03:33:03.642Z,2.37
2023-01-17T03:43:15.199Z,2.32
2023-01-17T03:45:41.990Z,2.26
2023-01-17T03:48:09.089Z,2.22
2023-01-17T03:50:35.896Z,2.17
2023-01-17T03:53:02.775Z,2.15
2023-01-17T03:55:29.496Z,2.12
2023-01-17T03:57:56.469Z,2.08
2023-01-17T04:00:23.373Z,2.05
2023-01-17T04:02:50.411Z,2.02
2023-01-17T04:05:17.311Z,1.99
2023-01-17T04:07:44.064Z,1.96
2023-01-17T04:10:11.040Z,1.93
2023-01-17T04:12:38.327Z,1.89
2023-01-17T04:15:05.898Z,1.86
2023-01-17T04:17:32.819Z,1.83
2023-01-17T04:19:59.688Z,1.80
2023-01-17T04:22:26.401Z,1.75
2023-01-17T04:24:53.095Z,1.70
2023-01-17T04:27:19.994Z,1.65
2023-01-17T04:29:46.961Z,1.60
2023-01-17T04:32:14.922Z,1.54
2023-01-17T04:34:42.168Z,1.48
2023-01-17T04:37:08.927Z,1.42
2023-01-17T04:39:35.835Z,1.36
2023-01-17T04:42:03.124Z,1.31
2023-01-17T04:44:29.931Z,1.27
2023-01-17T04:46:56.778Z,1.23
2023-01-17T04:49:23.543Z,1.20
2023-01-17T04:51:50.465Z,1.17
2023-01-17T04:54:17.309Z,1.15
2023-01-17T04:56:45.081Z,1.13
2023-01-17T04:59:12.231Z,1.11
2023-01-17T05:01:39.336Z,1.10
2023-01-17T05:04:06.443Z,1.07
2023-01-17T05:06:33.382Z,1.04
2023-01-17T05:09:00.157Z,1.01
2023-01-17T05:11:27.056Z,0.99
2023-01-17T05:13:53.994Z,0.97
2023-01-17T05:16:20.849Z,0.96
2023-01-17T05:18:50.652Z,0.94
2023-01-17T05:21:17.506Z,0.93
2023-01-17T05:23:44.253Z,0.92
2023-01-17T05:26:11.026Z,0.90
2023-01-17T05:28:37.928Z,0.87
2023-01-17T05:31:04.846Z,0.85
2023-01-17T05:33:32.033Z,0.83
2023-01-17T05:35:59.215Z,0.81
2023-01-17T05:38:26.018Z,0.80
2023-01-17T05:40:52.832Z,0.77
2023-01-17T05:43:20.806Z,0.76
2023-01-17T05:45:50.130Z,0.74
2023-01-17T05:48:17.000Z,0.74
2023-01-17T05:50:43.816Z,0.73
2023-01-17T05:53:12.563Z,0.74
2023-01-17T05:55:39.859Z,0.74
2023-01-17T05:58:07.318Z,0.72
2023-01-17T06:00:34.097Z,0.72
2023-01-17T06:03:01.323Z,0.72
2023-01-17T06:05:28.339Z,0.72
2023-01-17T06:07:55.097Z,0.72
2023-01-17T06:10:23.786Z,0.72
2023-01-17T06:12:50.649Z,0.72
2023-01-17T06:15:17.988Z,0.72
2023-01-17T06:17:44.763Z,0.73
2023-01-17T06:20:12.298Z,0.74
2023-01-17T06:22:39.124Z,0.75
2023-01-17T06:25:07.821Z,0.76
2023-01-17T06:27:34.658Z,0.78
2023-01-17T06:30:01.527Z,0.80
2023-01-17T06:32:28.377Z,0.81
2023-01-17T06:34:55.396Z,0.82
2023-01-17T06:37:22.210Z,0.84
2023-01-17T06:39:49.298Z,0.85
2023-01-17T06:42:16.434Z,0.88
2023-01-17T06:44:43.416Z,0.89
2023-01-17T06:47:10.200Z,0.92
2023-01-17T06:49:36.934Z,0.93
2023-01-17T06:52:03.824Z,0.96
2023-01-17T06:54:30.629Z,0.99
2023-01-17T06:56:57.441Z,1.02
2023-01-17T06:59:24.497Z,1.06
2023-01-17T07:01:51.527Z,1.09
2023-01-17T07:04:18.439Z,1.12
2023-01-17T07:06:45.378Z,1.14
2023-01-17T07:09:12.579Z,1.17
2023-01-17T07:11:39.473Z,1.19
2023-01-17T07:14:06.258Z,1.22
2023-01-17T07:16:34.168Z,1.24
2023-01-17T07:19:01.054Z,1.27
2023-01-17T07:21:28.083Z,1.30
2023-01-17T07:23:54.967Z,1.35
2023-01-17T07:26:22.256Z,1.39
2023-01-17T07:28:49.116Z,1.42
2023-01-17T07:31:16.463Z,1.47
2023-01-17T07:33:43.529Z,1.52
2023-01-17T07:36:11.229Z,1.57
2023-01-17T07:38:38.050Z,1.60
2023-01-17T07:41:05.192Z,1.63
2023-01-17T07:43:32.230Z,1.65
2023-01-17T07:46:04.572Z,1.67
2023-01-17T07:48:37.603Z,1.70
2023-01-17T07:51:16.477Z,1.73
2023-01-17T07:54:47.728Z,1.77
2023-01-17T07:57:28.953Z,1.82
2023-01-17T08:00:35.638Z,1.86
2023-01-17T08:03:14.007Z,1.90
2023-01-17T10:15:03.257Z,2.18
2023-01-17T10:18:05.021Z,2.20
2023-01-17T10:20:51.828Z,2.23
2023-01-17T10:23:35.587Z,2.26
2023-01-17T10:26:07.995Z,2.28
2023-01-17T10:28:46.530Z,2.30
2023-01-17T10:31:22.142Z,2.31
2023-01-17T10:33:56.106Z,2.35
2023-01-17T10:36:24.938Z,2.36
2023-01-17T10:38:56.460Z,2.38
2023-01-17T10:41:28.124Z,2.41
2023-01-17T10:44:18.418Z,2.44
2023-01-17T10:46:51.126Z,2.44
2023-01-17T10:49:19.635Z,2.45
2023-01-17T10:51:59.268Z,2.46
2023-01-17T10:54:28.646Z,2.48
2023-01-17T10:56:55.210Z,2.49
2023-01-17T10:59:29.973Z,2.51
2023-01-17T11:02:00.163Z,2.53
2023-01-17T11:04:37.545Z,2.55
2023-01-17T11:07:14.520Z,2.55
2023-01-17T11:09:46.036Z,2.57
2023-01-17T11:12:28.837Z,2.58
2023-01-17T11:15:05.653Z,2.58
2023-01-17T11:17:33.495Z,2.59
2023-01-17T11:20:07.774Z,2.61
2023-01-17T11:22:37.221Z,2.61
2023-01-17T11:25:04.788Z,2.60
2023-01-17T11:27:37.597Z,2.60
2023-01-17T11:30:16.398Z,2.61
2023-01-17T11:32:56.948Z,2.61
2023-01-17T11:43:18.787Z,2.74
2023-01-17T11:45:46.811Z,2.74
2023-01-17T11:48:16.208Z,2.77
2023-01-17T11:50:59.433Z,2.78
2023-01-17T11:53:34.585Z,2.79
2023-01-17T11:56:12.604Z,2.81
2023-01-17T11:58:41.425Z,2.81
2023-01-17T12:01:27.582Z,2.81
2023-01-17T12:03:59.498Z,2.82
2023-01-17T12:06:56.769Z,2.83
2023-01-17T12:09:42.855Z,2.84
2023-01-17T12:12:40.022Z,2.84
2023-01-17T12:15:39.995Z,2.85
2023-01-17T12:18:25.839Z,2.86
2023-01-17T12:20:59.031Z,2.87
2023-01-17T12:23:51.315Z,2.87
2023-01-17T12:26:44.431Z,2.89
2023-01-17T12:29:42.338Z,2.91
2023-01-17T12:32:23.393Z,2.94
2023-01-17T12:34:52.779Z,2.96
2023-01-17T12:37:40.212Z,2.99
2023-01-17T12:40:13.196Z,3.00
2023-01-17T12:42:48.114Z,3.01
2023-01-17T12:45:28.667Z,3.04
2023-01-17T12:47:59.944Z,3.04
2023-01-17T12:50:41.619Z,3.05
2023-01-17T12:53:35.403Z,3.06
2023-01-17T12:56:08.526Z,3.08
2023-01-17T12:58:39.858Z,3.08
2023-01-17T13:01:18.935Z,3.07
2023-01-17T13:04:00.472Z,3.08
2023-01-17T13:06:51.063Z,3.09
2023-01-17T13:09:19.604Z,3.07
2023-01-17T13:11:58.025Z,3.07
2023-01-17T13:14:24.905Z,3.08
2023-01-17T13:16:59.109Z,3.07
2023-01-17T13:19:48.082Z,3.07
2023-01-17T13:22:19.447Z,3.08
2023-01-17T13:24:50.776Z,3.07
2023-01-17T13:27:43.838Z,3.09
2023-01-17T13:30:15.491Z,3.10
2023-01-17T13:32:51.432Z,3.10
2023-01-17T13:35:58.332Z,3.11
2023-01-17T13:38:25.489Z,3.12
2023-01-17T13:41:03.831Z,3.12
2023-01-17T13:43:34.269Z,3.12
2023-01-17T13:46:03.380Z,3.13
2023-01-17T13:48:41.157Z,3.13
2023-01-17T13:51:08.892Z,3.13
2023-01-17T13:53:35.627Z,3.13
2023-01-17T13:56:15.993Z,3.13
2023-01-17T13:58:54.607Z,3.14
2023-01-17T14:01:24.618Z,3.14
2023-01-17T14:03:54.535Z,3.15
2023-01-17T14:06:35.406Z,3.15
2023-01-17T16:15:13.492Z,3.67
2023-01-17T16:17:44.987Z,3.67
2023-01-17T16:20:18.699Z,3.69
2023-01-17T16:22:46.403Z,3.72
2023-01-17T16:25:16.314Z,3.73
2023-01-17T16:27:44.434Z,3.75
2023-01-17T16:30:16.198Z,3.76
2023-01-17T16:32:46.342Z,3.79
2023-01-17T16:35:23.951Z,3.81
2023-01-17T16:37:55.041Z,3.83
2023-01-17T16:40:23.501Z,3.85
2023-01-17T16:42:50.301Z,3.86
2023-01-17T16:45:17.372Z,3.86
2023-01-17T16:47:47.382Z,3.87
2023-01-17T16:50:15.671Z,3.88
2023-01-17T16:52:42.222Z,3.89
2023-01-17T16:55:11.773Z,3.90
2023-01-17T16:57:38.651Z,3.91
2023-01-17T17:00:06.109Z,3.93
2023-01-17T17:02:33.217Z,3.93
2023-01-17T17:04:59.996Z,3.94
2023-01-17T17:07:26.642Z,3.95
2023-01-17T17:09:53.289Z,3.96
2023-01-17T17:12:20.431Z,3.96
2023-01-17T17:14:47.478Z,3.96
2023-01-17T17:17:14.858Z,3.97
2023-01-17T17:19:42.290Z,3.97
2023-01-17T17:22:09.788Z,3.98
2023-01-17T17:24:36.894Z,3.98
2023-01-17T17:27:04.043Z,3.99
2023-01-17T17:29:30.906Z,3.98
2023-01-17T17:31:58.648Z,3.99
2023-01-17T17:34:27.162Z,3.98
2023-01-17T17:36:53.876Z,3.98
2023-01-17T17:39:22.357Z,3.98
2023-01-17T17:41:49.097Z,3.99
2023-01-17T17:44:16.731Z,4.01
2023-01-17T17:46:44.182Z,4.03
2023-01-17T17:49:11.064Z,4.05
2023-01-17T17:51:38.703Z,4.07
2023-01-17T17:54:10.590Z,4.09
2023-01-17T17:56:38.341Z,4.11
2023-01-17T17:59:06.631Z,4.13
2023-01-17T18:01:37.577Z,4.15
2023-01-17T18:04:06.779Z,4.17
2023-01-17T18:06:34.632Z,4.18
2023-01-17T18:09:02.490Z,4.19
2023-01-17T18:11:29.666Z,4.21
2023-01-17T18:13:58.672Z,4.23
2023-01-17T18:16:28.024Z,4.25
2023-01-17T18:18:55.929Z,4.27
2023-01-17T18:21:24.580Z,4.30
2023-01-17T18:23:54.242Z,4.31
2023-01-17T18:26:31.405Z,4.32
2023-01-17T18:28:58.708Z,4.32
2023-01-17T18:31:27.103Z,4.32
2023-01-17T18:33:55.000Z,4.32
2023-01-17T18:36:23.074Z,4.32
2023-01-17T18:38:49.822Z,4.33
2023-01-17T18:41:18.610Z,4.33
2023-01-17T18:43:45.952Z,4.34
2023-01-17T18:46:14.520Z,4.34
2023-01-17T18:48:41.689Z,4.34
2023-01-17T18:51:10.679Z,4.35
2023-01-17T18:53:38.167Z,4.35
2023-01-17T18:56:07.165Z,4.35
2023-01-17T18:58:38.919Z,4.35
2023-01-17T19:01:28.927Z,4.35
2023-01-17T19:03:59.671Z,4.37
2023-01-17T19:06:29.670Z,4.37
2023-01-17T19:08:59.965Z,4.39
